sensor_id;sensor_type;location;lat;lon;timestamp;P1;durP1;ratioP1;P2;durP2;ratioP2
48871;SDS011;36154;51.674;7.824;2023-12-04T00:02:13;0.90;;;0.90;;
48871;SDS011;36154;51.674;7.824;2023-12-04T00:04:39;1.13;;;1.10;;
48871;SDS011;36154;51.674;7.824;2023-12-04T00:07:04;1.38;;;1.30;;
48871;SDS011;36154;51.674;7.824;2023-12-04T00:09:29;2.63;;;1.60;;
48871;SDS011;36154;51.674;7.824;2023-12-04T00:11:55;0.85;;;0.85;;
48871;SDS011;36154;51.674;7.824;2023-12-04T00:14:20;1.80;;;1.17;;
48871;SDS011;36154;51.674;7.824;2023-12-04T00:16:45;1.10;;;1.10;;
48871;SDS011;36154;51.674;7.824;2023-12-04T00:19:10;1.00;;;1.00;;
48871;SDS011;36154;51.674;7.824;2023-12-04T00:21:36;1.45;;;1.35;;
48871;SDS011;36154;51.674;7.824;2023-12-04T00:24:01;1.45;;;1.35;;
48871;SDS011;36154;51.674;7.824;2023-12-04T00:26:27;1.00;;;0.98;;
48871;SDS011;36154;51.674;7.824;2023-12-04T00:28:52;1.63;;;1.53;;
48871;SDS011;36154;51.674;7.824;2023-12-04T00:31:17;1.15;;;1.15;;
48871;SDS011;36154;51.674;7.824;2023-12-04T00:33:43;1.05;;;1.05;;
48871;SDS011;36154;51.674;7.824;2023-12-04T00:36:08;1.67;;;1.57;;
48871;SDS011;36154;51.674;7.824;2023-12-04T00:38:34;1.65;;;1.55;;
48871;SDS011;36154;51.674;7.824;2023-12-04T00:40:59;1.10;;;1.10;;
48871;SDS011;36154;51.674;7.824;2023-12-04T00:43:25;1.15;;;1.15;;
48871;SDS011;36154;51.674;7.824;2023-12-04T00:45:50;1.03;;;1.03;;
48871;SDS011;36154;51.674;7.824;2023-12-04T00:48:15;1.13;;;1.03;;
48871;SDS011;36154;51.674;7.824;2023-12-04T00:50:40;1.10;;;1.10;;
48871;SDS011;36154;51.674;7.824;2023-12-04T00:53:06;1.02;;;1.02;;
48871;SDS011;36154;51.674;7.824;2023-12-04T00:55:31;1.20;;;1.20;;
48871;SDS011;36154;51.674;7.824;2023-12-04T00:57:56;1.10;;;1.10;;
48871;SDS011;36154;51.674;7.824;2023-12-04T01:00:21;1.27;;;1.17;;
48871;SDS011;36154;51.674;7.824;2023-12-04T01:02:47;1.00;;;1.00;;
48871;SDS011;36154;51.674;7.824;2023-12-04T01:05:12;0.83;;;0.83;;
48871;SDS011;36154;51.674;7.824;2023-12-04T01:07:37;1.08;;;1.08;;
48871;SDS011;36154;51.674;7.824;2023-12-04T01:10:03;1.33;;;1.10;;
48871;SDS011;36154;51.674;7.824;2023-12-04T01:12:29;1.00;;;1.00;;
48871;SDS011;36154;51.674;7.824;2023-12-04T01:14:54;1.43;;;1.43;;
48871;SDS011;36154;51.674;7.824;2023-12-04T01:17:19;1.03;;;1.03;;
48871;SDS011;36154;51.674;7.824;2023-12-04T01:19:44;0.82;;;0.82;;
48871;SDS011;36154;51.674;7.824;2023-12-04T01:22:10;0.80;;;0.80;;
48871;SDS011;36154;51.674;7.824;2023-12-04T01:24:35;0.67;;;0.67;;
48871;SDS011;36154;51.674;7.824;2023-12-04T01:27:00;1.33;;;1.33;;
48871;SDS011;36154;51.674;7.824;2023-12-04T01:29:25;0.80;;;0.80;;
48871;SDS011;36154;51.674;7.824;2023-12-04T01:31:51;0.50;;;0.50;;
48871;SDS011;36154;51.674;7.824;2023-12-04T01:34:16;1.20;;;0.60;;
48871;SDS011;36154;51.674;7.824;2023-12-04T01:36:41;1.00;;;0.90;;
48871;SDS011;36154;51.674;7.824;2023-12-04T01:39:06;0.82;;;0.82;;
48871;SDS011;36154;51.674;7.824;2023-12-04T01:41:32;0.60;;;0.60;;
48871;SDS011;36154;51.674;7.824;2023-12-04T01:43:57;0.60;;;0.60;;
48871;SDS011;36154;51.674;7.824;2023-12-04T01:46:22;0.70;;;0.70;;
48871;SDS011;36154;51.674;7.824;2023-12-04T01:48:48;0.57;;;0.57;;
48871;SDS011;36154;51.674;7.824;2023-12-04T01:51:14;0.73;;;0.73;;
48871;SDS011;36154;51.674;7.824;2023-12-04T01:53:41;0.68;;;0.68;;
48871;SDS011;36154;51.674;7.824;2023-12-04T01:56:08;0.95;;;0.95;;
48871;SDS011;36154;51.674;7.824;2023-12-04T01:58:34;0.73;;;0.73;;
48871;SDS011;36154;51.674;7.824;2023-12-04T02:00:59;0.60;;;0.60;;
48871;SDS011;36154;51.674;7.824;2023-12-04T02:03:25;0.60;;;0.60;;
48871;SDS011;36154;51.674;7.824;2023-12-04T02:05:51;0.80;;;0.80;;
48871;SDS011;36154;51.674;7.824;2023-12-04T02:08:18;0.80;;;0.80;;
48871;SDS011;36154;51.674;7.824;2023-12-04T02:10:43;1.13;;;1.00;;
48871;SDS011;36154;51.674;7.824;2023-12-04T02:13:09;0.95;;;0.95;;
48871;SDS011;36154;51.674;7.824;2023-12-04T02:15:35;0.82;;;0.82;;
48871;SDS011;36154;51.674;7.824;2023-12-04T02:18:01;0.82;;;0.82;;
48871;SDS011;36154;51.674;7.824;2023-12-04T02:20:31;1.25;;;1.25;;
48871;SDS011;36154;51.674;7.824;2023-12-04T02:22:58;0.95;;;0.95;;
48871;SDS011;36154;51.674;7.824;2023-12-04T02:25:23;0.98;;;0.98;;
48871;SDS011;36154;51.674;7.824;2023-12-04T02:27:52;0.98;;;0.98;;
48871;SDS011;36154;51.674;7.824;2023-12-04T02:30:19;0.95;;;0.95;;
48871;SDS011;36154;51.674;7.824;2023-12-04T02:32:47;0.70;;;0.70;;
48871;SDS011;36154;51.674;7.824;2023-12-04T02:35:14;0.50;;;0.50;;
48871;SDS011;36154;51.674;7.824;2023-12-04T02:37:41;0.68;;;0.68;;
48871;SDS011;36154;51.674;7.824;2023-12-04T02:40:07;0.75;;;0.75;;
48871;SDS011;36154;51.674;7.824;2023-12-04T02:42:33;1.10;;;1.10;;
48871;SDS011;36154;51.674;7.824;2023-12-04T02:44:58;1.10;;;1.02;;
48871;SDS011;36154;51.674;7.824;2023-12-04T02:47:24;0.77;;;0.77;;
48871;SDS011;36154;51.674;7.824;2023-12-04T02:49:49;1.00;;;1.00;;
48871;SDS011;36154;51.674;7.824;2023-12-04T02:52:14;0.80;;;0.80;;
48871;SDS011;36154;51.674;7.824;2023-12-04T02:54:40;0.90;;;0.90;;
48871;SDS011;36154;51.674;7.824;2023-12-04T02:57:05;0.80;;;0.80;;
48871;SDS011;36154;51.674;7.824;2023-12-04T02:59:30;1.02;;;1.02;;
48871;SDS011;36154;51.674;7.824;2023-12-04T03:01:55;0.80;;;0.80;;
48871;SDS011;36154;51.674;7.824;2023-12-04T03:04:21;0.70;;;0.70;;
48871;SDS011;36154;51.674;7.824;2023-12-04T03:06:46;0.90;;;0.90;;
48871;SDS011;36154;51.674;7.824;2023-12-04T03:09:12;0.60;;;0.60;;
48871;SDS011;36154;51.674;7.824;2023-12-04T03:11:40;0.88;;;0.88;;
48871;SDS011;36154;51.674;7.824;2023-12-04T03:14:06;0.85;;;0.85;;
48871;SDS011;36154;51.674;7.824;2023-12-04T03:16:32;0.73;;;0.73;;
48871;SDS011;36154;51.674;7.824;2023-12-04T03:18:57;1.00;;;0.90;;
48871;SDS011;36154;51.674;7.824;2023-12-04T03:21:22;0.70;;;0.70;;
48871;SDS011;36154;51.674;7.824;2023-12-04T03:23:48;0.65;;;0.65;;
48871;SDS011;36154;51.674;7.824;2023-12-04T03:26:13;0.68;;;0.63;;
48871;SDS011;36154;51.674;7.824;2023-12-04T03:28:38;1.13;;;0.77;;
48871;SDS011;36154;51.674;7.824;2023-12-04T03:31:05;0.60;;;0.60;;
48871;SDS011;36154;51.674;7.824;2023-12-04T03:33:30;0.60;;;0.60;;
48871;SDS011;36154;51.674;7.824;2023-12-04T03:35:56;0.50;;;0.50;;
48871;SDS011;36154;51.674;7.824;2023-12-04T03:38:21;0.60;;;0.60;;
48871;SDS011;36154;51.674;7.824;2023-12-04T03:40:46;0.52;;;0.52;;
48871;SDS011;36154;51.674;7.824;2023-12-04T03:43:11;0.60;;;0.60;;
48871;SDS011;36154;51.674;7.824;2023-12-04T03:45:37;0.50;;;0.50;;
48871;SDS011;36154;51.674;7.824;2023-12-04T03:48:02;0.80;;;0.80;;
48871;SDS011;36154;51.674;7.824;2023-12-04T03:50:27;0.50;;;0.50;;
48871;SDS011;36154;51.674;7.824;2023-12-04T03:52:52;0.40;;;0.40;;
48871;SDS011;36154;51.674;7.824;2023-12-04T03:55:18;0.60;;;0.60;;
48871;SDS011;36154;51.674;7.824;2023-12-04T03:57:44;0.50;;;0.50;;
48871;SDS011;36154;51.674;7.824;2023-12-04T04:00:10;0.43;;;0.43;;
48871;SDS011;36154;51.674;7.824;2023-12-04T04:02:36;0.50;;;0.50;;
48871;SDS011;36154;51.674;7.824;2023-12-04T04:05:01;0.60;;;0.60;;
48871;SDS011;36154;51.674;7.824;2023-12-04T04:07:26;0.50;;;0.50;;
48871;SDS011;36154;51.674;7.824;2023-12-04T04:09:52;0.43;;;0.43;;
48871;SDS011;36154;51.674;7.824;2023-12-04T04:12:17;0.40;;;0.40;;
48871;SDS011;36154;51.674;7.824;2023-12-04T04:14:42;0.40;;;0.40;;
48871;SDS011;36154;51.674;7.824;2023-12-04T04:17:08;0.60;;;0.60;;
48871;SDS011;36154;51.674;7.824;2023-12-04T04:19:33;0.70;;;0.52;;
48871;SDS011;36154;51.674;7.824;2023-12-04T04:21:58;0.40;;;0.40;;
48871;SDS011;36154;51.674;7.824;2023-12-04T04:24:23;0.50;;;0.50;;
48871;SDS011;36154;51.674;7.824;2023-12-04T04:26:49;0.30;;;0.30;;
48871;SDS011;36154;51.674;7.824;2023-12-04T04:29:14;0.40;;;0.40;;
48871;SDS011;36154;51.674;7.824;2023-12-04T04:31:39;0.40;;;0.40;;
48871;SDS011;36154;51.674;7.824;2023-12-04T04:34:04;0.30;;;0.30;;
48871;SDS011;36154;51.674;7.824;2023-12-04T04:36:30;0.75;;;0.75;;
48871;SDS011;36154;51.674;7.824;2023-12-04T04:38:55;0.90;;;0.90;;
48871;SDS011;36154;51.674;7.824;2023-12-04T04:41:20;0.43;;;0.43;;
48871;SDS011;36154;51.674;7.824;2023-12-04T04:43:46;0.52;;;0.52;;
48871;SDS011;36154;51.674;7.824;2023-12-04T04:46:11;0.40;;;0.40;;
48871;SDS011;36154;51.674;7.824;2023-12-04T04:48:36;0.55;;;0.55;;
48871;SDS011;36154;51.674;7.824;2023-12-04T04:51:01;0.40;;;0.40;;
48871;SDS011;36154;51.674;7.824;2023-12-04T04:53:27;0.73;;;0.45;;
48871;SDS011;36154;51.674;7.824;2023-12-04T04:55:52;0.35;;;0.35;;
48871;SDS011;36154;51.674;7.824;2023-12-04T04:58:17;0.70;;;0.70;;
48871;SDS011;36154;51.674;7.824;2023-12-04T05:00:46;0.50;;;0.50;;
48871;SDS011;36154;51.674;7.824;2023-12-04T05:03:14;0.60;;;0.60;;
48871;SDS011;36154;51.674;7.824;2023-12-04T05:05:39;0.60;;;0.60;;
48871;SDS011;36154;51.674;7.824;2023-12-04T05:08:04;0.38;;;0.38;;
48871;SDS011;36154;51.674;7.824;2023-12-04T05:10:30;0.67;;;0.63;;
48871;SDS011;36154;51.674;7.824;2023-12-04T05:12:55;0.60;;;0.60;;
48871;SDS011;36154;51.674;7.824;2023-12-04T05:15:21;0.50;;;0.50;;
48871;SDS011;36154;51.674;7.824;2023-12-04T05:17:46;0.50;;;0.47;;
48871;SDS011;36154;51.674;7.824;2023-12-04T05:20:12;0.50;;;0.50;;
48871;SDS011;36154;51.674;7.824;2023-12-04T05:22:37;0.50;;;0.50;;
48871;SDS011;36154;51.674;7.824;2023-12-04T05:25:03;0.50;;;0.50;;
48871;SDS011;36154;51.674;7.824;2023-12-04T05:27:28;0.60;;;0.60;;
48871;SDS011;36154;51.674;7.824;2023-12-04T05:29:53;0.73;;;0.60;;
48871;SDS011;36154;51.674;7.824;2023-12-04T05:32:19;0.60;;;0.60;;
48871;SDS011;36154;51.674;7.824;2023-12-04T05:34:44;0.50;;;0.50;;
48871;SDS011;36154;51.674;7.824;2023-12-04T05:37:09;0.40;;;0.40;;
48871;SDS011;36154;51.674;7.824;2023-12-04T05:39:34;0.35;;;0.35;;
48871;SDS011;36154;51.674;7.824;2023-12-04T05:42:00;0.60;;;0.40;;
48871;SDS011;36154;51.674;7.824;2023-12-04T05:44:25;0.50;;;0.50;;
48871;SDS011;36154;51.674;7.824;2023-12-04T05:46:50;0.50;;;0.50;;
48871;SDS011;36154;51.674;7.824;2023-12-04T05:49:15;0.43;;;0.43;;
48871;SDS011;36154;51.674;7.824;2023-12-04T05:51:41;0.40;;;0.40;;
48871;SDS011;36154;51.674;7.824;2023-12-04T05:54:06;0.63;;;0.50;;
48871;SDS011;36154;51.674;7.824;2023-12-04T05:56:31;0.60;;;0.60;;
48871;SDS011;36154;51.674;7.824;2023-12-04T05:58:56;0.40;;;0.40;;
48871;SDS011;36154;51.674;7.824;2023-12-04T06:01:22;0.80;;;0.80;;
48871;SDS011;36154;51.674;7.824;2023-12-04T06:03:47;0.60;;;0.60;;
48871;SDS011;36154;51.674;7.824;2023-12-04T06:06:12;0.40;;;0.40;;
48871;SDS011;36154;51.674;7.824;2023-12-04T06:08:37;0.30;;;0.30;;
48871;SDS011;36154;51.674;7.824;2023-12-04T06:11:03;0.40;;;0.40;;
48871;SDS011;36154;51.674;7.824;2023-12-04T06:13:28;0.40;;;0.40;;
48871;SDS011;36154;51.674;7.824;2023-12-04T06:15:53;0.40;;;0.40;;
48871;SDS011;36154;51.674;7.824;2023-12-04T06:18:19;0.30;;;0.30;;
48871;SDS011;36154;51.674;7.824;2023-12-04T06:20:45;0.45;;;0.45;;
48871;SDS011;36154;51.674;7.824;2023-12-04T06:23:11;0.32;;;0.32;;
48871;SDS011;36154;51.674;7.824;2023-12-04T06:25:37;0.40;;;0.40;;
48871;SDS011;36154;51.674;7.824;2023-12-04T06:28:03;0.30;;;0.30;;
48871;SDS011;36154;51.674;7.824;2023-12-04T06:30:29;0.90;;;0.50;;
48871;SDS011;36154;51.674;7.824;2023-12-04T06:32:54;0.40;;;0.40;;
48871;SDS011;36154;51.674;7.824;2023-12-04T06:35:20;0.30;;;0.30;;
48871;SDS011;36154;51.674;7.824;2023-12-04T06:37:45;0.40;;;0.40;;
48871;SDS011;36154;51.674;7.824;2023-12-04T06:40:12;0.40;;;0.40;;
48871;SDS011;36154;51.674;7.824;2023-12-04T06:42:37;0.32;;;0.32;;
48871;SDS011;36154;51.674;7.824;2023-12-04T06:45:03;0.30;;;0.30;;
48871;SDS011;36154;51.674;7.824;2023-12-04T06:47:30;0.30;;;0.30;;
48871;SDS011;36154;51.674;7.824;2023-12-04T06:49:56;0.40;;;0.40;;
48871;SDS011;36154;51.674;7.824;2023-12-04T06:52:21;0.40;;;0.40;;
48871;SDS011;36154;51.674;7.824;2023-12-04T06:54:47;0.40;;;0.40;;
48871;SDS011;36154;51.674;7.824;2023-12-04T06:57:12;0.55;;;0.55;;
48871;SDS011;36154;51.674;7.824;2023-12-04T06:59:39;0.40;;;0.40;;
48871;SDS011;36154;51.674;7.824;2023-12-04T07:02:07;0.30;;;0.30;;
48871;SDS011;36154;51.674;7.824;2023-12-04T07:04:33;0.40;;;0.40;;
48871;SDS011;36154;51.674;7.824;2023-12-04T07:06:58;0.40;;;0.40;;
48871;SDS011;36154;51.674;7.824;2023-12-04T07:09:26;0.30;;;0.30;;
48871;SDS011;36154;51.674;7.824;2023-12-04T07:11:52;0.28;;;0.28;;
48871;SDS011;36154;51.674;7.824;2023-12-04T07:14:17;0.45;;;0.45;;
48871;SDS011;36154;51.674;7.824;2023-12-04T07:16:43;0.50;;;0.50;;
48871;SDS011;36154;51.674;7.824;2023-12-04T07:19:09;0.57;;;0.57;;
48871;SDS011;36154;51.674;7.824;2023-12-04T07:21:35;0.40;;;0.40;;
48871;SDS011;36154;51.674;7.824;2023-12-04T07:24:01;0.40;;;0.40;;
48871;SDS011;36154;51.674;7.824;2023-12-04T07:26:27;0.40;;;0.40;;
48871;SDS011;36154;51.674;7.824;2023-12-04T07:28:52;0.60;;;0.60;;
48871;SDS011;36154;51.674;7.824;2023-12-04T07:31:17;0.38;;;0.38;;
48871;SDS011;36154;51.674;7.824;2023-12-04T07:33:42;0.50;;;0.50;;
48871;SDS011;36154;51.674;7.824;2023-12-04T07:36:08;0.50;;;0.50;;
48871;SDS011;36154;51.674;7.824;2023-12-04T07:38:33;0.95;;;0.50;;
48871;SDS011;36154;51.674;7.824;2023-12-04T07:40:59;0.40;;;0.40;;
48871;SDS011;36154;51.674;7.824;2023-12-04T07:43:24;0.40;;;0.40;;
48871;SDS011;36154;51.674;7.824;2023-12-04T07:45:49;0.50;;;0.50;;
48871;SDS011;36154;51.674;7.824;2023-12-04T07:48:14;0.40;;;0.40;;
48871;SDS011;36154;51.674;7.824;2023-12-04T07:50:41;0.47;;;0.47;;
48871;SDS011;36154;51.674;7.824;2023-12-04T07:53:07;0.43;;;0.43;;
48871;SDS011;36154;51.674;7.824;2023-12-04T07:55:34;0.35;;;0.35;;
48871;SDS011;36154;51.674;7.824;2023-12-04T07:58:00;0.40;;;0.40;;
48871;SDS011;36154;51.674;7.824;2023-12-04T08:00:25;0.43;;;0.43;;
48871;SDS011;36154;51.674;7.824;2023-12-04T08:02:51;0.57;;;0.57;;
48871;SDS011;36154;51.674;7.824;2023-12-04T08:05:16;0.50;;;0.50;;
48871;SDS011;36154;51.674;7.824;2023-12-04T08:07:42;0.32;;;0.32;;
48871;SDS011;36154;51.674;7.824;2023-12-04T08:10:07;0.30;;;0.30;;
48871;SDS011;36154;51.674;7.824;2023-12-04T08:12:33;0.77;;;0.30;;
48871;SDS011;36154;51.674;7.824;2023-12-04T08:14:59;0.50;;;0.50;;
48871;SDS011;36154;51.674;7.824;2023-12-04T08:17:24;0.30;;;0.30;;
48871;SDS011;36154;51.674;7.824;2023-12-04T08:19:49;1.27;;;0.30;;
48871;SDS011;36154;51.674;7.824;2023-12-04T08:22:14;0.50;;;0.50;;
48871;SDS011;36154;51.674;7.824;2023-12-04T08:24:40;0.68;;;0.60;;
48871;SDS011;36154;51.674;7.824;2023-12-04T08:27:05;0.40;;;0.40;;
48871;SDS011;36154;51.674;7.824;2023-12-04T08:29:30;1.02;;;0.93;;
48871;SDS011;36154;51.674;7.824;2023-12-04T08:31:56;3.35;;;0.47;;
48871;SDS011;36154;51.674;7.824;2023-12-04T08:34:21;0.52;;;0.52;;
48871;SDS011;36154;51.674;7.824;2023-12-04T08:36:46;0.47;;;0.47;;
48871;SDS011;36154;51.674;7.824;2023-12-04T08:39:11;1.35;;;0.47;;
48871;SDS011;36154;51.674;7.824;2023-12-04T08:41:37;0.40;;;0.40;;
48871;SDS011;36154;51.674;7.824;2023-12-04T08:44:02;1.60;;;0.30;;
48871;SDS011;36154;51.674;7.824;2023-12-04T08:46:27;0.73;;;0.50;;
48871;SDS011;36154;51.674;7.824;2023-12-04T08:48:52;3.38;;;0.40;;
48871;SDS011;36154;51.674;7.824;2023-12-04T08:51:18;1.38;;;0.30;;
48871;SDS011;36154;51.674;7.824;2023-12-04T08:53:43;1.73;;;0.40;;
48871;SDS011;36154;51.674;7.824;2023-12-04T08:56:09;1.55;;;0.35;;
48871;SDS011;36154;51.674;7.824;2023-12-04T08:58:35;0.30;;;0.30;;
48871;SDS011;36154;51.674;7.824;2023-12-04T09:01:01;0.32;;;0.32;;
48871;SDS011;36154;51.674;7.824;2023-12-04T09:03:27;0.38;;;0.38;;
48871;SDS011;36154;51.674;7.824;2023-12-04T09:05:52;0.30;;;0.30;;
48871;SDS011;36154;51.674;7.824;2023-12-04T09:08:20;2.42;;;0.20;;
48871;SDS011;36154;51.674;7.824;2023-12-04T09:10:45;0.30;;;0.30;;
48871;SDS011;36154;51.674;7.824;2023-12-04T09:13:12;1.45;;;0.40;;
48871;SDS011;36154;51.674;7.824;2023-12-04T09:15:37;2.63;;;0.40;;
48871;SDS011;36154;51.674;7.824;2023-12-04T09:18:03;3.45;;;0.40;;
48871;SDS011;36154;51.674;7.824;2023-12-04T09:20:28;1.73;;;0.40;;
48871;SDS011;36154;51.674;7.824;2023-12-04T09:22:54;2.25;;;0.50;;
48871;SDS011;36154;51.674;7.824;2023-12-04T09:25:19;1.52;;;0.32;;
48871;SDS011;36154;51.674;7.824;2023-12-04T09:27:44;0.57;;;0.30;;
48871;SDS011;36154;51.674;7.824;2023-12-04T09:30:10;3.15;;;0.45;;
48871;SDS011;36154;51.674;7.824;2023-12-04T09:32:35;0.85;;;0.32;;
48871;SDS011;36154;51.674;7.824;2023-12-04T09:35:01;2.67;;;0.40;;
48871;SDS011;36154;51.674;7.824;2023-12-04T09:37:26;2.88;;;0.43;;
48871;SDS011;36154;51.674;7.824;2023-12-04T09:39:51;2.50;;;0.50;;
48871;SDS011;36154;51.674;7.824;2023-12-04T09:42:18;1.75;;;0.40;;
48871;SDS011;36154;51.674;7.824;2023-12-04T09:44:43;3.63;;;0.50;;
48871;SDS011;36154;51.674;7.824;2023-12-04T09:47:11;2.03;;;0.57;;
48871;SDS011;36154;51.674;7.824;2023-12-04T09:49:36;3.17;;;0.90;;
48871;SDS011;36154;51.674;7.824;2023-12-04T09:52:03;2.08;;;0.60;;
48871;SDS011;36154;51.674;7.824;2023-12-04T09:54:29;5.25;;;0.65;;
48871;SDS011;36154;51.674;7.824;2023-12-04T09:56:55;0.57;;;0.30;;
48871;SDS011;36154;51.674;7.824;2023-12-04T09:59:20;3.10;;;0.45;;
48871;SDS011;36154;51.674;7.824;2023-12-04T10:01:49;2.08;;;0.40;;
48871;SDS011;36154;51.674;7.824;2023-12-04T10:04:16;3.80;;;0.60;;
48871;SDS011;36154;51.674;7.824;2023-12-04T10:06:41;1.63;;;0.50;;
48871;SDS011;36154;51.674;7.824;2023-12-04T10:09:10;1.85;;;0.80;;
48871;SDS011;36154;51.674;7.824;2023-12-04T10:11:41;1.27;;;0.70;;
48871;SDS011;36154;51.674;7.824;2023-12-04T10:14:13;0.70;;;0.30;;
48871;SDS011;36154;51.674;7.824;2023-12-04T10:22:03;2.20;;;0.60;;
48871;SDS011;36154;51.674;7.824;2023-12-04T10:24:36;1.40;;;0.40;;
48871;SDS011;36154;51.674;7.824;2023-12-04T10:27:04;1.33;;;0.52;;
48871;SDS011;36154;51.674;7.824;2023-12-04T10:29:42;3.03;;;0.95;;
48871;SDS011;36154;51.674;7.824;2023-12-04T10:32:12;1.17;;;0.63;;
48871;SDS011;36154;51.674;7.824;2023-12-04T10:34:38;1.42;;;0.55;;
48871;SDS011;36154;51.674;7.824;2023-12-04T10:37:07;1.88;;;0.75;;
48871;SDS011;36154;51.674;7.824;2023-12-04T10:39:47;1.00;;;0.63;;
48871;SDS011;36154;51.674;7.824;2023-12-04T10:42:24;1.77;;;0.70;;
48871;SDS011;36154;51.674;7.824;2023-12-04T10:44:56;0.40;;;0.40;;
48871;SDS011;36154;51.674;7.824;2023-12-04T10:47:23;0.80;;;0.50;;
48871;SDS011;36154;51.674;7.824;2023-12-04T10:49:51;0.70;;;0.60;;
48871;SDS011;36154;51.674;7.824;2023-12-04T10:52:17;1.15;;;0.60;;
48871;SDS011;36154;51.674;7.824;2023-12-04T10:54:49;1.10;;;0.45;;
48871;SDS011;36154;51.674;7.824;2023-12-04T10:57:16;2.15;;;0.95;;
48871;SDS011;36154;51.674;7.824;2023-12-04T10:59:47;0.70;;;0.70;;
48871;SDS011;36154;51.674;7.824;2023-12-04T11:02:18;1.63;;;0.70;;
48871;SDS011;36154;51.674;7.824;2023-12-04T11:04:46;1.05;;;0.63;;
48871;SDS011;36154;51.674;7.824;2023-12-04T11:07:15;1.52;;;1.20;;
48871;SDS011;36154;51.674;7.824;2023-12-04T11:09:42;0.85;;;0.85;;
48871;SDS011;36154;51.674;7.824;2023-12-04T11:12:08;0.88;;;0.82;;
48871;SDS011;36154;51.674;7.824;2023-12-04T11:14:42;0.68;;;0.55;;
48871;SDS011;36154;51.674;7.824;2023-12-04T11:17:10;0.50;;;0.50;;
48871;SDS011;36154;51.674;7.824;2023-12-04T11:19:47;0.60;;;0.60;;
48871;SDS011;36154;51.674;7.824;2023-12-04T11:22:18;1.23;;;1.13;;
48871;SDS011;36154;51.674;7.824;2023-12-04T11:24:47;0.70;;;0.60;;
48871;SDS011;36154;51.674;7.824;2023-12-04T11:27:14;0.75;;;0.75;;
48871;SDS011;36154;51.674;7.824;2023-12-04T11:29:41;0.43;;;0.43;;
48871;SDS011;36154;51.674;7.824;2023-12-04T11:32:07;2.15;;;0.30;;
48871;SDS011;36154;51.674;7.824;2023-12-04T11:34:34;0.70;;;0.40;;
48871;SDS011;36154;51.674;7.824;2023-12-04T11:37:00;3.75;;;0.30;;
48871;SDS011;36154;51.674;7.824;2023-12-04T11:39:27;1.85;;;0.65;;
48871;SDS011;36154;51.674;7.824;2023-12-04T11:41:53;0.40;;;0.40;;
48871;SDS011;36154;51.674;7.824;2023-12-04T11:44:18;1.50;;;0.40;;
48871;SDS011;36154;51.674;7.824;2023-12-04T11:47:05;0.57;;;0.30;;
48871;SDS011;36154;51.674;7.824;2023-12-04T11:49:32;0.73;;;0.55;;
48871;SDS011;36154;51.674;7.824;2023-12-04T11:51:58;0.30;;;0.30;;
48871;SDS011;36154;51.674;7.824;2023-12-04T11:54:26;1.05;;;0.60;;
48871;SDS011;36154;51.674;7.824;2023-12-04T11:56:59;0.43;;;0.43;;
48871;SDS011;36154;51.674;7.824;2023-12-04T11:59:25;1.13;;;0.60;;
48871;SDS011;36154;51.674;7.824;2023-12-04T12:01:52;1.02;;;0.65;;
48871;SDS011;36154;51.674;7.824;2023-12-04T12:04:19;0.77;;;0.77;;
48871;SDS011;36154;51.674;7.824;2023-12-04T12:06:45;0.70;;;0.70;;
48871;SDS011;36154;51.674;7.824;2023-12-04T12:09:10;0.40;;;0.40;;
48871;SDS011;36154;51.674;7.824;2023-12-04T12:11:36;1.23;;;0.40;;
48871;SDS011;36154;51.674;7.824;2023-12-04T12:14:02;0.60;;;0.32;;
48871;SDS011;36154;51.674;7.824;2023-12-04T12:16:27;0.93;;;0.93;;
48871;SDS011;36154;51.674;7.824;2023-12-04T12:18:52;0.43;;;0.43;;
48871;SDS011;36154;51.674;7.824;2023-12-04T12:21:18;1.05;;;0.60;;
48871;SDS011;36154;51.674;7.824;2023-12-04T12:23:43;0.50;;;0.50;;
48871;SDS011;36154;51.674;7.824;2023-12-04T12:26:09;0.47;;;0.40;;
48871;SDS011;36154;51.674;7.824;2023-12-04T12:28:34;2.20;;;0.50;;
48871;SDS011;36154;51.674;7.824;2023-12-04T12:31:03;0.73;;;0.40;;
48871;SDS011;36154;51.674;7.824;2023-12-04T12:33:29;0.85;;;0.50;;
48871;SDS011;36154;51.674;7.824;2023-12-04T12:35:54;1.05;;;0.40;;
48871;SDS011;36154;51.674;7.824;2023-12-04T12:38:20;0.75;;;0.45;;
48871;SDS011;36154;51.674;7.824;2023-12-04T12:40:45;0.43;;;0.40;;
48871;SDS011;36154;51.674;7.824;2023-12-04T12:43:11;0.50;;;0.50;;
48871;SDS011;36154;51.674;7.824;2023-12-04T12:45:39;0.88;;;0.45;;
48871;SDS011;36154;51.674;7.824;2023-12-04T12:48:06;0.60;;;0.60;;
48871;SDS011;36154;51.674;7.824;2023-12-04T12:50:35;0.50;;;0.30;;
48871;SDS011;36154;51.674;7.824;2023-12-04T12:53:01;1.95;;;0.40;;
48871;SDS011;36154;51.674;7.824;2023-12-04T12:55:27;0.40;;;0.40;;
48871;SDS011;36154;51.674;7.824;2023-12-04T12:57:55;8.60;;;0.45;;
48871;SDS011;36154;51.674;7.824;2023-12-04T13:00:20;0.60;;;0.30;;
48871;SDS011;36154;51.674;7.824;2023-12-04T13:02:46;2.35;;;0.40;;
48871;SDS011;36154;51.674;7.824;2023-12-04T13:05:11;1.13;;;0.38;;
48871;SDS011;36154;51.674;7.824;2023-12-04T13:07:36;1.30;;;0.50;;
48871;SDS011;36154;51.674;7.824;2023-12-04T13:10:02;0.68;;;0.68;;
48871;SDS011;36154;51.674;7.824;2023-12-04T13:12:29;1.23;;;0.73;;
48871;SDS011;36154;51.674;7.824;2023-12-04T13:14:55;0.57;;;0.35;;
48871;SDS011;36154;51.674;7.824;2023-12-04T13:17:20;6.70;;;0.52;;
48871;SDS011;36154;51.674;7.824;2023-12-04T13:19:46;0.38;;;0.38;;
48871;SDS011;36154;51.674;7.824;2023-12-04T13:22:11;1.55;;;0.38;;
48871;SDS011;36154;51.674;7.824;2023-12-04T13:24:36;1.95;;;0.40;;
48871;SDS011;36154;51.674;7.824;2023-12-04T13:27:01;0.30;;;0.30;;
48871;SDS011;36154;51.674;7.824;2023-12-04T13:29:27;0.50;;;0.50;;
48871;SDS011;36154;51.674;7.824;2023-12-04T13:31:52;0.70;;;0.40;;
48871;SDS011;36154;51.674;7.824;2023-12-04T13:34:18;0.50;;;0.50;;
48871;SDS011;36154;51.674;7.824;2023-12-04T13:36:43;0.50;;;0.50;;
48871;SDS011;36154;51.674;7.824;2023-12-04T13:39:08;0.63;;;0.40;;
48871;SDS011;36154;51.674;7.824;2023-12-04T13:41:45;1.92;;;0.63;;
48871;SDS011;36154;51.674;7.824;2023-12-04T13:44:29;1.15;;;1.08;;
48871;SDS011;36154;51.674;7.824;2023-12-04T13:46:55;2.03;;;0.90;;
48871;SDS011;36154;51.674;7.824;2023-12-04T13:49:20;3.70;;;1.40;;
48871;SDS011;36154;51.674;7.824;2023-12-04T13:51:46;9.50;;;2.38;;
48871;SDS011;36154;51.674;7.824;2023-12-04T13:54:14;7.80;;;2.33;;
48871;SDS011;36154;51.674;7.824;2023-12-04T13:56:49;12.05;;;2.53;;
48871;SDS011;36154;51.674;7.824;2023-12-04T13:59:19;8.05;;;2.60;;
48871;SDS011;36154;51.674;7.824;2023-12-04T14:01:46;4.75;;;2.15;;
48871;SDS011;36154;51.674;7.824;2023-12-04T14:04:12;10.05;;;2.25;;
48871;SDS011;36154;51.674;7.824;2023-12-04T14:06:37;9.13;;;2.15;;
48871;SDS011;36154;51.674;7.824;2023-12-04T14:09:02;7.07;;;1.90;;
48871;SDS011;36154;51.674;7.824;2023-12-04T14:11:35;8.57;;;1.77;;
48871;SDS011;36154;51.674;7.824;2023-12-04T14:14:03;8.90;;;1.52;;
48871;SDS011;36154;51.674;7.824;2023-12-04T14:16:29;8.02;;;2.03;;
48871;SDS011;36154;51.674;7.824;2023-12-04T14:18:55;6.70;;;1.88;;
48871;SDS011;36154;51.674;7.824;2023-12-04T14:21:20;13.32;;;1.98;;
48871;SDS011;36154;51.674;7.824;2023-12-04T14:23:45;6.15;;;1.90;;
48871;SDS011;36154;51.674;7.824;2023-12-04T14:26:10;7.85;;;1.88;;
48871;SDS011;36154;51.674;7.824;2023-12-04T14:28:36;4.97;;;1.70;;
48871;SDS011;36154;51.674;7.824;2023-12-04T14:31:01;5.78;;;1.65;;
48871;SDS011;36154;51.674;7.824;2023-12-04T14:33:27;6.20;;;1.70;;
48871;SDS011;36154;51.674;7.824;2023-12-04T14:35:52;4.63;;;1.50;;
48871;SDS011;36154;51.674;7.824;2023-12-04T14:38:18;6.43;;;1.65;;
48871;SDS011;36154;51.674;7.824;2023-12-04T14:40:43;5.15;;;1.88;;
48871;SDS011;36154;51.674;7.824;2023-12-04T14:43:09;4.00;;;1.17;;
48871;SDS011;36154;51.674;7.824;2023-12-04T14:45:35;3.03;;;1.42;;
48871;SDS011;36154;51.674;7.824;2023-12-04T14:48:01;4.72;;;1.30;;